createdAt,value
2023-04-07T00:02:24.157Z,11.23
2023-04-07T00:04:54.070Z,12.07
2023-04-07T00:07:22.858Z,11.52
2023-04-07T00:09:51.198Z,12.07
2023-04-07T00:12:19.545Z,10.70
2023-04-07T00:14:47.874Z,11.38
2023-04-07T00:17:16.247Z,11.18
2023-04-07T00:19:44.863Z,10.65
2023-04-07T00:22:14.573Z,10.80
2023-04-07T00:24:43.456Z,9.68
2023-04-07T00:27:12.389Z,9.93
2023-04-07T00:29:41.023Z,10.15
2023-04-07T00:32:09.821Z,9.18
2023-04-07T00:34:38.214Z,9.32
2023-04-07T00:37:06.564Z,8.68
2023-04-07T00:39:37.075Z,8.00
2023-04-07T00:42:06.713Z,8.55
2023-04-07T00:44:35.032Z,8.05
2023-04-07T00:47:03.512Z,7.55
2023-04-07T00:49:32.563Z,7.55
2023-04-07T00:52:00.984Z,6.70
2023-04-07T00:54:31.841Z,7.22
2023-04-07T00:57:01.612Z,6.80
2023-04-07T00:59:31.419Z,7.20
2023-04-07T01:02:04.725Z,7.40
2023-04-07T01:04:36.492Z,7.00
2023-04-07T01:07:08.894Z,7.03
2023-04-07T01:09:42.311Z,6.45
2023-04-07T01:12:19.489Z,7.05
2023-04-07T01:14:52.988Z,6.70
2023-04-07T01:17:26.456Z,7.00
2023-04-07T01:20:00.300Z,7.43
2023-04-07T01:22:34.175Z,7.03
2023-04-07T01:25:16.539Z,6.80
2023-04-07T01:28:00.460Z,6.90
2023-04-07T01:30:32.565Z,7.47
2023-04-07T01:33:02.676Z,7.40
2023-04-07T01:35:34.275Z,6.68
2023-04-07T01:38:04.762Z,7.65
2023-04-07T01:40:35.004Z,6.95
2023-04-07T01:43:03.720Z,7.63
2023-04-07T01:45:37.044Z,6.43
2023-04-07T01:48:07.487Z,6.68
2023-04-07T01:50:36.041Z,6.65
2023-04-07T01:53:04.995Z,6.18
2023-04-07T01:55:33.681Z,7.00
2023-04-07T01:58:05.724Z,7.03
2023-04-07T02:00:35.421Z,7.18
2023-04-07T02:03:09.642Z,6.53
2023-04-07T02:05:40.799Z,6.50
2023-04-07T02:08:11.724Z,7.00
2023-04-07T02:10:40.260Z,6.47
2023-04-07T02:13:11.437Z,6.93
2023-04-07T02:15:42.330Z,6.85
2023-04-07T02:18:12.940Z,6.88
2023-04-07T02:20:43.803Z,6.70
2023-04-07T02:23:12.465Z,7.07
2023-04-07T02:25:40.792Z,7.97
2023-04-07T02:28:09.151Z,6.93
2023-04-07T02:30:37.543Z,6.68
2023-04-07T02:33:07.647Z,7.18
2023-04-07T02:35:36.002Z,6.78
2023-04-07T02:38:04.330Z,7.22
2023-04-07T02:40:32.675Z,7.30
2023-04-07T02:43:01.429Z,7.28
2023-04-07T02:45:29.778Z,7.40
2023-04-07T02:47:58.156Z,7.85
2023-04-07T02:50:29.158Z,7.20
2023-04-07T02:52:57.617Z,7.60
2023-04-07T02:55:25.942Z,7.25
2023-04-07T02:57:54.477Z,7.57
2023-04-07T03:00:22.838Z,7.93
2023-04-07T03:02:51.611Z,7.68
2023-04-07T03:05:20.342Z,7.80
2023-04-07T03:07:50.004Z,7.35
2023-04-07T03:10:18.554Z,7.32
2023-04-07T03:12:46.964Z,7.07
2023-04-07T03:15:17.599Z,7.72
2023-04-07T03:17:47.083Z,7.53
2023-04-07T03:20:15.510Z,7.82
2023-04-07T03:22:44.521Z,8.38
2023-04-07T03:25:14.820Z,8.23
2023-04-07T03:27:43.200Z,7.95
2023-04-07T03:30:12.365Z,7.72
2023-04-07T03:32:40.812Z,7.57
2023-04-07T03:35:10.169Z,7.55
2023-04-07T03:37:38.550Z,7.85
2023-04-07T03:40:07.921Z,7.40
2023-04-07T03:42:37.660Z,7.60
2023-04-07T03:45:06.910Z,6.80
2023-04-07T03:47:35.495Z,7.55
2023-04-07T03:50:03.979Z,7.68
2023-04-07T03:52:32.340Z,7.20
2023-04-07T03:55:01.033Z,7.65
2023-04-07T03:57:29.526Z,6.63
2023-04-07T03:59:59.245Z,6.85
2023-04-07T04:02:27.601Z,7.28
2023-04-07T04:04:56.412Z,7.20
2023-04-07T04:07:26.286Z,6.70
2023-04-07T04:09:54.615Z,7.60
2023-04-07T04:12:22.962Z,7.25
2023-04-07T04:14:51.313Z,7.45
2023-04-07T04:17:21.133Z,7.35
2023-04-07T04:19:49.450Z,7.05
2023-04-07T04:22:17.927Z,6.60
2023-04-07T04:24:46.306Z,7.82
2023-04-07T04:27:14.662Z,8.02
2023-04-07T04:29:43.016Z,7.63
2023-04-07T04:32:11.382Z,7.60
2023-04-07T04:34:42.188Z,7.90
2023-04-07T04:37:10.895Z,7.88
2023-04-07T04:39:39.258Z,7.10
2023-04-07T04:42:07.618Z,7.40
2023-04-07T04:44:36.727Z,7.45
2023-04-07T04:47:05.408Z,7.75
2023-04-07T04:49:33.828Z,8.02
2023-04-07T04:52:03.719Z,7.20
2023-04-07T04:54:33.101Z,7.93
2023-04-07T04:57:01.644Z,7.97
2023-04-07T04:59:29.965Z,7.35
2023-04-07T05:01:58.399Z,7.05
2023-04-07T05:04:28.355Z,8.07
2023-04-07T05:06:57.025Z,7.90
2023-04-07T05:09:27.404Z,8.07
2023-04-07T05:11:55.825Z,7.65
2023-04-07T05:14:24.168Z,7.85
2023-04-07T05:16:52.903Z,7.78
2023-04-07T05:19:21.480Z,7.70
2023-04-07T05:21:49.853Z,8.13
2023-04-07T05:24:18.184Z,8.05
2023-04-07T05:26:47.954Z,7.70
2023-04-07T05:29:16.416Z,7.85
2023-04-07T05:31:44.859Z,7.80
2023-04-07T05:34:13.234Z,7.65
2023-04-07T05:36:41.829Z,7.68
2023-04-07T05:39:10.266Z,7.78
2023-04-07T05:41:38.636Z,7.75
2023-04-07T05:44:08.345Z,7.80
2023-04-07T05:46:36.781Z,7.85
2023-04-07T05:49:19.014Z,8.35
2023-04-07T05:51:49.185Z,8.48
2023-04-07T05:54:17.871Z,8.73
2023-04-07T05:56:46.337Z,8.35
2023-04-07T05:59:16.058Z,8.48
2023-04-07T06:01:44.467Z,8.32
2023-04-07T06:04:13.255Z,9.05
2023-04-07T06:06:41.715Z,8.52
2023-04-07T06:09:10.091Z,8.65
2023-04-07T06:11:38.450Z,9.23
2023-04-07T06:14:06.768Z,9.13
2023-04-07T06:16:36.513Z,9.02
2023-04-07T06:19:05.134Z,8.75
2023-04-07T06:21:33.489Z,9.40
2023-04-07T06:24:01.929Z,9.20
2023-04-07T06:26:30.683Z,9.32
2023-04-07T06:28:59.394Z,8.73
2023-04-07T06:31:28.047Z,9.15
2023-04-07T06:33:57.863Z,9.75
2023-04-07T06:36:27.641Z,9.23
2023-04-07T06:38:56.300Z,9.07
2023-04-07T06:41:24.620Z,9.02
2023-04-07T06:43:52.930Z,9.00
2023-04-07T06:46:21.497Z,9.30
2023-04-07T06:48:49.885Z,9.13
2023-04-07T06:51:19.610Z,9.70
2023-04-07T06:53:48.801Z,8.77
2023-04-07T06:56:17.336Z,8.90
2023-04-07T06:58:45.666Z,9.77
2023-04-07T07:01:14.062Z,8.70
2023-04-07T07:03:42.530Z,9.50
2023-04-07T07:06:11.099Z,9.23
2023-04-07T07:08:40.882Z,8.80
2023-04-07T07:11:09.216Z,9.15
2023-04-07T07:13:38.374Z,8.85
2023-04-07T07:16:07.491Z,9.25
2023-04-07T07:18:36.926Z,10.27
2023-04-07T07:21:05.552Z,13.05
2023-04-07T07:23:34.038Z,11.02
2023-04-07T07:26:04.050Z,12.02
2023-04-07T07:28:32.403Z,9.40
2023-04-07T07:31:00.983Z,8.73
2023-04-07T07:33:29.326Z,9.23
2023-04-07T07:35:57.687Z,8.70
2023-04-07T07:38:27.604Z,8.95
2023-04-07T07:40:55.977Z,8.68
2023-04-07T07:43:25.888Z,8.20
2023-04-07T07:45:54.240Z,8.05
2023-04-07T07:48:22.596Z,7.88
2023-04-07T07:50:52.406Z,8.32
2023-04-07T07:53:20.811Z,7.70
2023-04-07T07:55:49.589Z,7.55
2023-04-07T07:58:17.964Z,7.80
2023-04-07T08:00:47.713Z,8.65
2023-04-07T08:03:16.474Z,6.80
2023-04-07T08:05:45.391Z,7.50
2023-04-07T08:08:13.787Z,7.05
2023-04-07T08:10:42.161Z,6.88
2023-04-07T08:13:11.100Z,6.65
2023-04-07T08:15:41.092Z,6.38
2023-04-07T08:18:11.022Z,6.10
2023-04-07T08:20:39.528Z,5.72
2023-04-07T08:23:07.935Z,5.95
2023-04-07T08:25:36.601Z,6.05
2023-04-07T08:28:04.944Z,6.07
2023-04-07T08:30:33.378Z,6.40
2023-04-07T08:33:02.156Z,7.18
2023-04-07T08:35:31.837Z,6.07
2023-04-07T08:38:00.258Z,6.10
2023-04-07T08:40:29.101Z,6.15
2023-04-07T08:43:01.440Z,6.28
2023-04-07T08:45:30.720Z,5.90
2023-04-07T08:48:05.489Z,5.72
2023-04-07T08:50:35.569Z,5.93
2023-04-07T08:53:09.304Z,6.15
2023-04-07T08:55:37.677Z,6.20
2023-04-07T08:58:06.315Z,6.32
2023-04-07T09:00:34.754Z,6.35
2023-04-07T09:03:04.564Z,6.90
2023-04-07T09:05:35.760Z,7.00
2023-04-07T09:08:04.451Z,7.35
2023-04-07T09:10:32.920Z,6.65
2023-04-07T09:13:01.375Z,7.13
2023-04-07T09:15:32.371Z,7.40
2023-04-07T09:18:00.962Z,5.82
2023-04-07T09:20:29.423Z,5.65
2023-04-07T09:23:00.335Z,5.30
2023-04-07T09:25:30.364Z,5.05
2023-04-07T09:28:00.670Z,5.13
2023-04-07T09:30:29.872Z,5.57
2023-04-07T09:32:59.551Z,5.38
2023-04-07T09:35:29.865Z,5.70
2023-04-07T09:38:06.856Z,5.25
2023-04-07T09:40:35.771Z,5.40
2023-04-07T09:43:05.185Z,5.15
2023-04-07T09:45:36.543Z,5.30
2023-04-07T09:48:09.643Z,5.40
2023-04-07T09:50:45.721Z,5.03
2023-04-07T09:53:15.503Z,5.13
2023-04-07T09:55:44.586Z,9.43
2023-04-07T09:58:14.914Z,7.72
2023-04-07T10:00:43.530Z,6.15
2023-04-07T10:03:13.433Z,5.55
2023-04-07T10:05:42.564Z,5.18
2023-04-07T10:08:11.413Z,5.18
2023-04-07T10:10:43.162Z,8.88
2023-04-07T10:13:12.501Z,6.28
2023-04-07T10:15:41.023Z,6.45
2023-04-07T10:18:10.198Z,6.00
2023-04-07T10:20:42.226Z,6.45
2023-04-07T10:23:22.192Z,6.13
2023-04-07T10:25:54.737Z,5.47
2023-04-07T10:28:27.437Z,4.20
2023-04-07T10:30:56.550Z,5.78
2023-04-07T10:33:47.793Z,4.43
2023-04-07T10:36:17.884Z,6.78
2023-04-07T10:39:19.456Z,5.13
2023-04-07T10:41:49.241Z,5.40
2023-04-07T10:44:50.667Z,4.65
2023-04-07T10:47:19.410Z,4.82
2023-04-07T10:50:19.976Z,5.43
2023-04-07T10:52:50.344Z,4.78
2023-04-07T10:55:39.032Z,5.30
2023-04-07T10:58:19.800Z,5.30
2023-04-07T11:01:23.132Z,5.13
2023-04-07T11:04:00.060Z,7.95
2023-04-07T11:06:28.943Z,5.20
2023-04-07T11:08:57.299Z,6.78
2023-04-07T11:11:40.856Z,6.13
2023-04-07T11:14:10.861Z,6.20
2023-04-07T11:16:43.889Z,6.50
2023-04-07T11:19:12.553Z,6.63
2023-04-07T11:21:41.083Z,6.78
2023-04-07T11:24:09.480Z,7.07
2023-04-07T11:26:39.988Z,7.20
2023-04-07T11:29:09.097Z,8.20
2023-04-07T11:31:39.974Z,9.88
2023-04-07T11:34:09.005Z,10.38
2023-04-07T11:36:41.027Z,10.65
2023-04-07T11:39:20.369Z,12.15
2023-04-07T11:41:50.621Z,12.25
2023-04-07T11:44:19.030Z,13.25
2023-04-07T11:46:59.326Z,13.30
2023-04-07T11:49:29.162Z,14.02
2023-04-07T11:52:02.986Z,12.55
2023-04-07T11:54:42.180Z,12.05
2023-04-07T11:57:12.674Z,12.20
2023-04-07T11:59:41.806Z,11.48
2023-04-07T12:02:11.691Z,12.10
2023-04-07T12:04:57.264Z,13.43
2023-04-07T12:07:27.914Z,11.95
2023-04-07T12:09:58.443Z,11.52
2023-04-07T12:12:28.460Z,16.10
2023-04-07T12:14:57.891Z,9.38
2023-04-07T12:17:28.501Z,9.30
2023-04-07T12:19:57.381Z,9.13
2023-04-07T12:22:25.858Z,9.52
2023-04-07T12:24:54.276Z,10.20
2023-04-07T12:27:32.541Z,8.90
2023-04-07T12:30:09.798Z,9.07
2023-04-07T12:32:39.855Z,8.52
2023-04-07T12:35:08.597Z,8.40
2023-04-07T12:37:37.403Z,8.20
2023-04-07T12:40:06.742Z,7.50
2023-04-07T12:42:35.143Z,8.43
2023-04-07T12:45:03.596Z,7.93
2023-04-07T12:47:32.265Z,8.68
2023-04-07T12:50:02.269Z,8.27
2023-04-07T12:52:30.690Z,9.00
2023-04-07T12:54:59.588Z,8.27
2023-04-07T12:57:28.783Z,8.00
2023-04-07T12:59:57.157Z,7.63
2023-04-07T13:02:26.159Z,7.40
2023-04-07T13:04:54.608Z,6.05
2023-04-07T13:07:24.427Z,6.05
2023-04-07T13:09:52.890Z,5.50
2023-04-07T13:12:21.670Z,5.25
2023-04-07T13:14:59.709Z,5.43
2023-04-07T13:17:29.219Z,5.20
2023-04-07T13:19:58.238Z,5.35
2023-04-07T13:22:28.013Z,5.38
2023-04-07T13:24:56.507Z,5.50
2023-04-07T13:27:25.064Z,4.90
2023-04-07T13:29:53.473Z,5.00
2023-04-07T13:32:21.891Z,5.00
2023-04-07T13:34:50.545Z,4.93
2023-04-07T13:37:19.545Z,5.15
2023-04-07T13:39:49.270Z,4.97
2023-04-07T13:42:19.215Z,6.70
2023-04-07T13:44:48.483Z,6.35
2023-04-07T13:47:19.694Z,4.93
2023-04-07T13:49:48.591Z,5.13
2023-04-07T13:52:17.812Z,5.60
2023-04-07T13:54:46.439Z,5.68
2023-04-07T13:57:20.663Z,5.30
2023-04-07T13:59:52.224Z,5.30
2023-04-07T14:02:20.729Z,5.78
2023-04-07T14:04:49.288Z,5.60
2023-04-07T14:07:17.806Z,5.40
2023-04-07T14:09:46.358Z,5.95
2023-04-07T14:12:16.250Z,10.15
2023-04-07T14:14:44.649Z,5.47
2023-04-07T14:17:12.988Z,5.63
2023-04-07T14:19:42.147Z,5.35
2023-04-07T14:22:10.491Z,5.70
2023-04-07T14:24:39.387Z,5.25
2023-04-07T14:27:07.822Z,5.82
2023-04-07T14:29:37.643Z,5.55
2023-04-07T14:32:06.433Z,5.82
2023-04-07T14:34:34.767Z,6.07
2023-04-07T14:37:03.447Z,31.40
2023-04-07T14:39:31.859Z,6.20
2023-04-07T14:42:00.682Z,6.15
2023-04-07T14:44:31.176Z,6.20
2023-04-07T14:47:01.595Z,6.80
2023-04-07T14:49:29.977Z,6.00
2023-04-07T14:51:58.669Z,5.25
2023-04-07T14:54:27.099Z,5.25
2023-04-07T14:56:55.474Z,4.72
2023-04-07T14:59:23.840Z,4.75
2023-04-07T15:01:53.380Z,5.55
2023-04-07T15:04:23.549Z,6.82
2023-04-07T15:06:52.050Z,5.22
2023-04-07T15:09:20.480Z,6.10
2023-04-07T15:11:48.862Z,6.10
2023-04-07T15:14:17.255Z,6.38
2023-04-07T15:16:47.266Z,6.60
2023-04-07T15:19:16.349Z,6.43
2023-04-07T15:21:46.228Z,7.03
2023-04-07T15:24:16.289Z,5.68
2023-04-07T15:26:44.967Z,5.70
2023-04-07T15:29:13.357Z,5.47
2023-04-07T15:31:41.780Z,5.70
2023-04-07T15:34:10.130Z,5.20
2023-04-07T15:36:38.476Z,5.30
2023-04-07T15:39:08.217Z,5.55
2023-04-07T15:41:36.840Z,6.30
2023-04-07T15:44:06.213Z,5.43
2023-04-07T15:46:34.650Z,6.72
2023-04-07T15:49:03.230Z,6.00
2023-04-07T15:51:31.691Z,6.18
2023-04-07T15:54:00.984Z,6.03
2023-04-07T15:56:30.794Z,5.38
2023-04-07T15:58:59.116Z,5.18
2023-04-07T16:01:27.555Z,5.97
2023-04-07T16:03:56.383Z,6.53
2023-04-07T16:06:24.776Z,7.07
2023-04-07T16:08:53.144Z,5.75
2023-04-07T16:11:22.221Z,5.60
2023-04-07T16:13:51.925Z,5.82
2023-04-07T16:16:20.873Z,7.53
2023-04-07T16:18:49.206Z,7.00
2023-04-07T16:21:17.886Z,6.60
2023-04-07T16:23:46.471Z,6.10
2023-04-07T16:26:14.912Z,7.35
2023-04-07T16:28:44.251Z,6.65
2023-04-07T16:31:14.063Z,6.22
2023-04-07T16:33:43.603Z,6.63
2023-04-07T16:36:11.984Z,6.68
2023-04-07T16:38:40.419Z,6.22
2023-04-07T16:41:09.047Z,7.60
2023-04-07T16:43:37.411Z,6.07
2023-04-07T16:46:07.515Z,7.50
2023-04-07T16:48:37.364Z,8.07
2023-04-07T16:51:06.021Z,8.00
2023-04-07T16:53:34.378Z,7.05
2023-04-07T16:56:02.847Z,7.55
2023-04-07T16:58:31.165Z,7.32
2023-04-07T17:00:59.492Z,6.38
2023-04-07T17:03:28.355Z,6.95
2023-04-07T17:06:03.294Z,7.45
2023-04-07T17:08:31.744Z,7.53
2023-04-07T17:11:00.273Z,8.25
2023-04-07T17:13:28.624Z,8.38
2023-04-07T17:15:57.083Z,10.30
2023-04-07T17:18:26.330Z,8.60
2023-04-07T17:20:54.670Z,10.25
2023-04-07T17:23:24.401Z,8.70
2023-04-07T17:25:52.742Z,7.25
2023-04-07T17:28:21.203Z,8.32
2023-04-07T17:30:49.568Z,8.00
2023-04-07T17:33:18.006Z,6.65
2023-04-07T17:35:47.600Z,7.00
2023-04-07T17:38:15.985Z,6.55
2023-04-07T17:40:45.772Z,7.07
2023-04-07T17:43:14.152Z,7.20
2023-04-07T17:45:42.505Z,6.93
2023-04-07T17:48:12.065Z,7.53
2023-04-07T17:50:40.677Z,7.45
2023-04-07T17:53:09.414Z,7.63
2023-04-07T17:55:38.308Z,7.30
2023-04-07T17:58:08.047Z,7.43
2023-04-07T18:00:36.541Z,6.82
2023-04-07T18:03:05.894Z,7.15
2023-04-07T18:05:34.565Z,7.68
2023-04-07T18:08:02.971Z,7.65
2023-04-07T18:10:31.370Z,7.05
2023-04-07T18:12:59.677Z,7.10
2023-04-07T18:15:29.341Z,7.07
2023-04-07T18:17:57.840Z,6.43
2023-04-07T18:20:26.180Z,6.53
2023-04-07T18:22:55.561Z,6.60
2023-04-07T18:25:24.024Z,6.00
2023-04-07T18:27:52.362Z,6.60
2023-04-07T18:30:21.398Z,5.57
2023-04-07T18:32:51.301Z,5.35
2023-04-07T18:35:19.778Z,5.10
2023-04-07T18:37:48.100Z,5.60
2023-04-07T18:40:16.539Z,5.68
2023-04-07T18:42:44.991Z,5.55
2023-04-07T18:45:13.356Z,5.78
2023-04-07T18:47:41.734Z,5.20
2023-04-07T18:50:12.008Z,5.18
2023-04-07T18:52:40.484Z,5.20
2023-04-07T18:55:10.887Z,5.07
2023-04-07T18:57:40.322Z,5.35
2023-04-07T19:00:09.834Z,5.75
2023-04-07T19:05:14.117Z,6.10
2023-04-07T19:07:42.462Z,6.13
2023-04-07T19:10:11.003Z,6.47
2023-04-07T19:12:40.032Z,6.20
2023-04-07T19:15:09.444Z,5.45
2023-04-07T19:17:38.859Z,5.95
2023-04-07T19:20:08.519Z,7.20
2023-04-07T19:22:38.248Z,5.32
2023-04-07T19:25:07.866Z,5.50
2023-04-07T19:27:36.657Z,5.55
2023-04-07T19:30:05.713Z,5.35
2023-04-07T19:32:34.148Z,5.20
2023-04-07T19:35:02.636Z,5.10
2023-04-07T19:37:30.981Z,4.65
2023-04-07T19:40:03.438Z,4.97
2023-04-07T19:42:32.310Z,5.45
2023-04-07T19:45:02.594Z,5.60
2023-04-07T19:47:31.174Z,5.53
2023-04-07T19:49:59.637Z,6.10
2023-04-07T19:52:29.511Z,5.75
2023-04-07T19:54:58.304Z,6.43
2023-04-07T19:57:30.952Z,6.05
2023-04-07T19:59:59.453Z,7.25
2023-04-07T20:02:28.240Z,6.95
2023-04-07T20:04:56.731Z,7.18
2023-04-07T20:07:25.040Z,7.07
2023-04-07T20:09:54.860Z,6.97
2023-04-07T20:12:23.203Z,7.60
2023-04-07T20:14:52.958Z,6.93
2023-04-07T20:17:21.316Z,8.55
2023-04-07T20:19:49.635Z,7.43
2023-04-07T20:22:17.961Z,7.47
2023-04-07T20:24:46.348Z,7.43
2023-04-07T20:27:14.683Z,8.35
2023-04-07T20:29:43.014Z,7.28
2023-04-07T20:32:12.922Z,7.47
2023-04-07T20:34:41.294Z,8.38
2023-04-07T20:37:09.659Z,7.93
2023-04-07T20:39:38.408Z,8.82
2023-04-07T20:42:06.871Z,9.82
2023-04-07T20:44:35.301Z,9.15
2023-04-07T20:47:08.415Z,8.75
2023-04-07T20:49:39.549Z,8.32
2023-04-07T20:52:08.330Z,8.23
2023-04-07T20:54:37.149Z,8.82
2023-04-07T20:57:05.538Z,8.95
2023-04-07T20:59:33.921Z,9.32
2023-04-07T21:02:02.423Z,8.80
2023-04-07T21:04:31.565Z,9.18
2023-04-07T21:07:01.345Z,9.18
2023-04-07T21:09:29.732Z,8.68
2023-04-07T21:11:58.110Z,10.38
2023-04-07T21:14:26.492Z,9.60
2023-04-07T21:16:54.840Z,9.38
2023-04-07T21:19:23.285Z,10.57
2023-04-07T21:21:51.662Z,10.35
2023-04-07T21:24:21.734Z,9.35
2023-04-07T21:26:50.170Z,9.52
2023-04-07T21:29:18.511Z,10.75
2023-04-07T21:31:46.851Z,9.32
2023-04-07T21:34:15.531Z,9.35
2023-04-07T21:36:44.042Z,10.13
2023-04-07T21:39:12.447Z,9.65
2023-04-07T21:41:42.229Z,9.80
2023-04-07T21:44:12.978Z,9.07
2023-04-07T21:46:41.601Z,9.77
2023-04-07T21:49:09.965Z,9.93
2023-04-07T21:51:38.583Z,9.77
2023-04-07T21:54:07.214Z,10.38
2023-04-07T21:56:35.655Z,11.93
2023-04-07T21:59:05.732Z,11.02
2023-04-07T22:01:34.196Z,10.32
2023-04-07T22:04:02.959Z,11.30
2023-04-07T22:06:31.372Z,10.32
2023-04-07T22:09:02.256Z,10.60
2023-04-07T22:11:31.095Z,10.73
2023-04-07T22:13:59.844Z,10.20
2023-04-07T22:16:29.610Z,10.98
2023-04-07T22:18:58.036Z,10.57
2023-04-07T22:21:27.225Z,10.85
2023-04-07T22:23:55.630Z,9.93
2023-04-07T22:26:23.998Z,10.38
2023-04-07T22:28:52.514Z,10.93
2023-04-07T22:31:21.049Z,11.30
2023-04-07T22:33:51.688Z,10.85
2023-04-07T22:36:20.141Z,11.27
2023-04-07T22:38:48.650Z,11.13
2023-04-07T22:41:17.301Z,10.98
2023-04-07T22:43:45.691Z,11.10
2023-04-07T22:46:15.892Z,11.93
2023-04-07T22:48:44.303Z,10.88
2023-04-07T22:51:14.001Z,10.80
2023-04-07T22:53:42.383Z,12.15
2023-04-07T22:56:11.238Z,11.45
2023-04-07T22:58:39.858Z,11.43
2023-04-07T23:01:08.268Z,11.65
2023-04-07T23:03:36.888Z,11.90
2023-04-07T23:06:05.650Z,10.43
2023-04-07T23:08:35.348Z,11.43
2023-04-07T23:11:03.746Z,11.35
2023-04-07T23:13:32.100Z,11.70
2023-04-07T23:16:03.608Z,11.18
2023-04-07T23:18:32.433Z,12.10
2023-04-07T23:21:00.758Z,11.50
2023-04-07T23:23:29.105Z,10.65
2023-04-07T23:25:58.864Z,11.93
2023-04-07T23:28:28.028Z,12.48
2023-04-07T23:30:57.092Z,11.77
2023-04-07T23:33:25.406Z,11.15
2023-04-07T23:35:53.785Z,11.50
2023-04-07T23:38:22.174Z,10.82
2023-04-07T23:40:50.498Z,11.65
2023-04-07T23:43:20.319Z,10.98
2023-04-07T23:45:48.955Z,11.70
2023-04-07T23:48:17.420Z,11.25
2023-04-07T23:50:46.062Z,11.90
2023-04-07T23:53:14.378Z,12.70
2023-04-07T23:55:42.752Z,12.25
2023-04-07T23:58:11.243Z,11.70
